createdAt,value
2023-02-16T00:08:20.454Z,96.11
2023-02-16T00:18:23.789Z,98.87
2023-02-16T00:28:27.672Z,97.91
2023-02-16T00:38:30.233Z,97.33
2023-02-16T00:48:32.780Z,98.83
2023-02-16T00:58:35.964Z,97.51
2023-02-16T01:08:57.130Z,100.00
2023-02-16T01:19:00.235Z,99.60
2023-02-16T01:29:03.116Z,97.79
2023-02-16T01:39:06.116Z,100.00
2023-02-16T01:49:14.225Z,100.00
2023-02-16T01:59:49.167Z,100.00
2023-02-16T02:10:05.966Z,100.00
2023-02-16T02:20:57.105Z,100.00
2023-02-16T02:31:10.950Z,100.00
2023-02-16T02:41:52.239Z,100.00
2023-02-16T02:51:55.137Z,97.26
2023-02-16T03:02:01.322Z,97.67
2023-02-16T03:12:24.721Z,98.73
2023-02-16T03:22:47.182Z,97.60
2023-02-16T03:32:50.545Z,98.15
2023-02-16T03:42:53.143Z,96.06
2023-02-16T03:53:06.901Z,100.00
2023-02-16T04:03:10.434Z,98.88
2023-02-16T04:13:13.308Z,100.00
2023-02-16T04:23:15.714Z,99.13
2023-02-16T04:33:18.176Z,96.09
2023-02-16T04:43:20.625Z,95.53
2023-02-16T04:53:23.126Z,94.07
2023-02-16T05:03:25.753Z,94.37
2023-02-16T05:13:51.974Z,96.93
2023-02-16T05:23:54.439Z,98.75
2023-02-16T05:33:56.969Z,97.33
2023-02-16T05:44:02.407Z,96.18
2023-02-16T05:54:05.949Z,96.44
2023-02-16T06:04:13.092Z,93.74
2023-02-16T06:14:21.097Z,94.36
2023-02-16T06:24:23.666Z,93.90
2023-02-16T06:34:26.353Z,94.09
2023-02-16T06:44:28.804Z,93.71
2023-02-16T06:54:31.484Z,93.53
2023-02-16T07:04:34.058Z,92.42
2023-02-16T07:14:36.722Z,91.50
2023-02-16T07:24:39.273Z,91.02
2023-02-16T07:34:42.041Z,89.58
2023-02-16T07:44:44.567Z,89.76
2023-02-16T07:54:47.469Z,88.59
2023-02-16T08:04:52.834Z,88.33
2023-02-16T08:14:55.445Z,89.47
2023-02-16T08:24:59.549Z,91.83
2023-02-16T08:35:02.473Z,90.33
2023-02-16T08:45:07.430Z,90.94
2023-02-16T08:55:09.964Z,87.85
2023-02-16T09:05:13.533Z,86.56
2023-02-16T09:15:16.880Z,85.35
2023-02-16T09:25:19.561Z,85.57
2023-02-16T09:35:22.264Z,83.53
2023-02-16T09:45:26.915Z,80.19
2023-02-16T09:56:09.183Z,78.08
2023-02-16T10:06:31.572Z,77.01
2023-02-16T10:16:41.426Z,71.97
2023-02-16T10:26:49.139Z,70.90
2023-02-16T10:37:14.787Z,70.64
2023-02-16T10:47:33.009Z,72.15
2023-02-16T10:57:36.469Z,71.76
2023-02-16T11:08:01.693Z,65.99
2023-02-16T11:18:08.094Z,64.11
2023-02-16T11:28:12.005Z,57.99
2023-02-16T11:38:27.771Z,58.06
2023-02-16T11:48:33.511Z,60.58
2023-02-16T11:58:36.525Z,59.98
2023-02-16T12:09:00.600Z,57.05
2023-02-16T12:19:31.712Z,55.25
2023-02-16T12:29:55.032Z,52.23
2023-02-16T12:40:32.745Z,49.50
2023-02-16T12:50:39.872Z,51.70
2023-02-16T13:00:49.622Z,53.33
2023-02-16T13:11:03.402Z,53.51
2023-02-16T13:21:14.596Z,56.33
2023-02-16T13:31:40.377Z,56.99
2023-02-16T13:41:45.873Z,66.65
2023-02-16T13:51:50.045Z,68.29
2023-02-16T14:01:54.448Z,69.91
2023-02-16T14:11:57.628Z,70.29
2023-02-16T14:22:12.094Z,75.06
2023-02-16T14:32:28.528Z,76.15
2023-02-16T14:42:34.145Z,77.30
2023-02-16T14:52:37.222Z,78.80
2023-02-16T15:02:55.050Z,81.77
2023-02-16T15:12:58.456Z,84.94
2023-02-16T15:23:06.257Z,85.65
2023-02-16T15:33:31.048Z,87.01
2023-02-16T15:43:47.649Z,88.26
2023-02-16T15:53:53.484Z,91.21
2023-02-16T16:03:56.241Z,91.47
2023-02-16T16:13:59.309Z,91.20
2023-02-16T16:24:03.698Z,90.21
2023-02-16T16:34:12.486Z,93.69
2023-02-16T16:44:34.924Z,95.44
2023-02-16T16:54:39.648Z,96.68
2023-02-16T17:04:42.497Z,100.00
2023-02-16T17:14:45.224Z,100.00
2023-02-16T17:24:47.857Z,100.00
2023-02-16T17:34:50.763Z,100.00
2023-02-16T17:44:53.355Z,100.00
2023-02-16T17:54:56.161Z,100.00
2023-02-16T18:04:59.128Z,100.00
2023-02-16T18:15:02.055Z,100.00
2023-02-16T18:25:06.138Z,100.00
2023-02-16T18:35:10.814Z,100.00
2023-02-16T18:45:13.935Z,100.00
2023-02-16T18:55:17.859Z,100.00
2023-02-16T19:05:21.108Z,100.00
2023-02-16T19:15:24.228Z,100.00
2023-02-16T19:25:28.863Z,100.00
2023-02-16T19:35:32.002Z,100.00
2023-02-16T19:45:37.448Z,100.00
2023-02-16T19:55:41.884Z,100.00
2023-02-16T20:05:44.907Z,100.00
2023-02-16T20:15:48.173Z,100.00
2023-02-16T20:25:50.774Z,100.00
2023-02-16T20:35:53.976Z,100.00
2023-02-16T20:45:57.849Z,100.00
2023-02-16T20:56:09.559Z,100.00
2023-02-16T21:06:12.368Z,100.00
2023-02-16T21:16:17.526Z,100.00
2023-02-16T21:26:23.500Z,100.00
2023-02-16T21:36:27.395Z,100.00
2023-02-16T21:46:34.088Z,100.00
2023-02-16T21:56:45.144Z,100.00
2023-02-16T22:06:57.071Z,100.00
2023-02-16T22:17:01.911Z,100.00
2023-02-16T22:27:04.422Z,100.00
2023-02-16T22:37:06.963Z,100.00
2023-02-16T22:47:09.535Z,100.00
2023-02-16T22:57:12.051Z,100.00
2023-02-16T23:07:14.574Z,100.00
2023-02-16T23:17:17.160Z,100.00
2023-02-16T23:27:19.618Z,100.00
2023-02-16T23:37:22.576Z,100.00
2023-02-16T23:47:25.420Z,100.00
2023-02-16T23:57:27.861Z,100.00
